CRL weather

Brussels South Charleroi Airport
Brussels, Hainaut, Belgium

Public forecast

Using degrees Celsius for public forecast. Weather courtesy of forecast.io.

METAR (pilot weather report)

Retrieved 2018/12/19 05:20 UTC (0 seconds ago):

EBCI 190520Z 21010KT 6000 -RADZ SCT004 BKN006 07/06 Q1010 TEMPO BKN004

TAF (pilot weather forecast)

Forecast is more than 12 hours old.

Retrieved 2018/12/18 00:27 UTC (1 day ago):

TAF EBCI 182300Z 1900/2006 18014KT 9999 BKN030 BECMG 1900/1902 BKN012 TEMPO 1902/1908 BKN006 BECMG 1910/1912 BKN020 PROB30 TEMPO 1921/2006 4000 SHRA SCT006 BKN012CB